sensor_id;sensor_type;location;lat;lon;timestamp;P1;durP1;ratioP1;P2;durP2;ratioP2
43861;SDS011;29510;52.140;5.034;2022-07-21T00:07:15;3.10;;;1.75;;
43861;SDS011;29510;52.140;5.034;2022-07-21T00:17:16;3.25;;;1.38;;
43861;SDS011;29510;52.140;5.034;2022-07-21T00:27:17;2.90;;;1.42;;
43861;SDS011;29510;52.140;5.034;2022-07-21T00:37:18;3.70;;;2.08;;
43861;SDS011;29510;52.140;5.034;2022-07-21T00:47:20;3.63;;;1.77;;
43861;SDS011;29510;52.140;5.034;2022-07-21T00:57:25;3.50;;;1.58;;
43861;SDS011;29510;52.140;5.034;2022-07-21T01:07:26;3.53;;;1.50;;
43861;SDS011;29510;52.140;5.034;2022-07-21T01:17:27;2.78;;;1.20;;
43861;SDS011;29510;52.140;5.034;2022-07-21T01:27:28;3.53;;;1.58;;
43861;SDS011;29510;52.140;5.034;2022-07-21T01:37:30;5.13;;;1.60;;
43861;SDS011;29510;52.140;5.034;2022-07-21T01:47:32;4.03;;;1.67;;
43861;SDS011;29510;52.140;5.034;2022-07-21T01:57:33;4.28;;;2.53;;
43861;SDS011;29510;52.140;5.034;2022-07-21T02:07:34;3.70;;;1.38;;
43861;SDS011;29510;52.140;5.034;2022-07-21T02:17:35;4.43;;;2.10;;
43861;SDS011;29510;52.140;5.034;2022-07-21T02:27:36;4.47;;;2.47;;
43861;SDS011;29510;52.140;5.034;2022-07-21T02:37:38;5.47;;;2.13;;
43861;SDS011;29510;52.140;5.034;2022-07-21T02:47:49;5.05;;;1.73;;
43861;SDS011;29510;52.140;5.034;2022-07-21T03:08:09;4.55;;;2.45;;
43861;SDS011;29510;52.140;5.034;2022-07-21T03:18:10;5.18;;;2.20;;
43861;SDS011;29510;52.140;5.034;2022-07-21T03:28:11;5.00;;;2.38;;
43861;SDS011;29510;52.140;5.034;2022-07-21T03:38:12;6.10;;;2.65;;
43861;SDS011;29510;52.140;5.034;2022-07-21T03:48:13;6.75;;;3.47;;
43861;SDS011;29510;52.140;5.034;2022-07-21T03:58:14;5.97;;;2.63;;
43861;SDS011;29510;52.140;5.034;2022-07-21T04:08:16;7.60;;;3.25;;
43861;SDS011;29510;52.140;5.034;2022-07-21T04:18:17;5.80;;;3.10;;
43861;SDS011;29510;52.140;5.034;2022-07-21T04:28:18;5.65;;;2.30;;
43861;SDS011;29510;52.140;5.034;2022-07-21T04:38:19;6.60;;;2.72;;
43861;SDS011;29510;52.140;5.034;2022-07-21T04:48:20;4.82;;;2.50;;
43861;SDS011;29510;52.140;5.034;2022-07-21T04:58:22;4.53;;;2.92;;
43861;SDS011;29510;52.140;5.034;2022-07-21T05:08:23;6.30;;;3.55;;
43861;SDS011;29510;52.140;5.034;2022-07-21T05:18:26;7.63;;;4.22;;
43861;SDS011;29510;52.140;5.034;2022-07-21T05:28:28;7.70;;;3.80;;
43861;SDS011;29510;52.140;5.034;2022-07-21T05:38:29;8.52;;;3.83;;
43861;SDS011;29510;52.140;5.034;2022-07-21T05:48:30;7.22;;;3.83;;
43861;SDS011;29510;52.140;5.034;2022-07-21T05:58:33;9.18;;;4.22;;
43861;SDS011;29510;52.140;5.034;2022-07-21T06:08:36;6.38;;;2.90;;
43861;SDS011;29510;52.140;5.034;2022-07-21T06:18:38;6.75;;;3.47;;
43861;SDS011;29510;52.140;5.034;2022-07-21T06:28:39;12.77;;;4.30;;
43861;SDS011;29510;52.140;5.034;2022-07-21T06:38:40;11.73;;;4.05;;
43861;SDS011;29510;52.140;5.034;2022-07-21T06:48:41;10.82;;;3.97;;
43861;SDS011;29510;52.140;5.034;2022-07-21T06:58:42;13.45;;;4.70;;
43861;SDS011;29510;52.140;5.034;2022-07-21T07:08:43;12.30;;;5.63;;
43861;SDS011;29510;52.140;5.034;2022-07-21T07:18:44;9.63;;;4.80;;
43861;SDS011;29510;52.140;5.034;2022-07-21T07:28:45;13.85;;;5.47;;
43861;SDS011;29510;52.140;5.034;2022-07-21T07:38:46;8.38;;;4.72;;
43861;SDS011;29510;52.140;5.034;2022-07-21T07:48:48;9.55;;;4.53;;
43861;SDS011;29510;52.140;5.034;2022-07-21T07:58:49;7.97;;;4.28;;
43861;SDS011;29510;52.140;5.034;2022-07-21T08:08:50;6.55;;;3.00;;
43861;SDS011;29510;52.140;5.034;2022-07-21T08:18:52;5.28;;;2.00;;
43861;SDS011;29510;52.140;5.034;2022-07-21T08:28:53;3.53;;;2.10;;
43861;SDS011;29510;52.140;5.034;2022-07-21T08:38:56;3.72;;;2.20;;
43861;SDS011;29510;52.140;5.034;2022-07-21T08:48:57;4.80;;;2.08;;
43861;SDS011;29510;52.140;5.034;2022-07-21T08:59:00;3.45;;;1.98;;
43861;SDS011;29510;52.140;5.034;2022-07-21T09:09:01;4.65;;;2.20;;
43861;SDS011;29510;52.140;5.034;2022-07-21T09:19:03;3.80;;;2.17;;
43861;SDS011;29510;52.140;5.034;2022-07-21T09:29:11;4.95;;;2.22;;
43861;SDS011;29510;52.140;5.034;2022-07-21T09:39:12;4.03;;;1.80;;
43861;SDS011;29510;52.140;5.034;2022-07-21T09:49:13;4.95;;;1.90;;
43861;SDS011;29510;52.140;5.034;2022-07-21T09:59:14;3.92;;;2.20;;
43861;SDS011;29510;52.140;5.034;2022-07-21T10:09:15;7.75;;;2.92;;
43861;SDS011;29510;52.140;5.034;2022-07-21T10:39:50;4.10;;;2.23;;
43861;SDS011;29510;52.140;5.034;2022-07-21T11:10:16;3.35;;;1.25;;
43861;SDS011;29510;52.140;5.034;2022-07-21T11:20:18;3.05;;;1.27;;
43861;SDS011;29510;52.140;5.034;2022-07-21T11:30:19;2.65;;;1.27;;
43861;SDS011;29510;52.140;5.034;2022-07-21T11:40:20;2.85;;;1.48;;
43861;SDS011;29510;52.140;5.034;2022-07-21T11:50:21;2.45;;;1.20;;
43861;SDS011;29510;52.140;5.034;2022-07-21T12:00:24;1.88;;;0.90;;
43861;SDS011;29510;52.140;5.034;2022-07-21T12:10:27;1.65;;;0.93;;
43861;SDS011;29510;52.140;5.034;2022-07-21T12:20:40;2.25;;;1.02;;
43861;SDS011;29510;52.140;5.034;2022-07-21T12:30:43;1.48;;;0.75;;
43861;SDS011;29510;52.140;5.034;2022-07-21T12:40:55;1.25;;;0.73;;
43861;SDS011;29510;52.140;5.034;2022-07-21T13:01:16;1.48;;;0.68;;
43861;SDS011;29510;52.140;5.034;2022-07-21T13:11:19;1.23;;;0.52;;
43861;SDS011;29510;52.140;5.034;2022-07-21T13:21:20;3.03;;;0.50;;
43861;SDS011;29510;52.140;5.034;2022-07-21T13:31:21;1.38;;;0.50;;
43861;SDS011;29510;52.140;5.034;2022-07-21T13:41:23;3.25;;;1.20;;
43861;SDS011;29510;52.140;5.034;2022-07-21T13:51:24;1.92;;;1.17;;
43861;SDS011;29510;52.140;5.034;2022-07-21T14:01:25;6.82;;;1.60;;
43861;SDS011;29510;52.140;5.034;2022-07-21T14:11:26;2.17;;;1.05;;
43861;SDS011;29510;52.140;5.034;2022-07-21T14:21:28;3.70;;;1.63;;
43861;SDS011;29510;52.140;5.034;2022-07-21T14:31:29;3.10;;;1.70;;
43861;SDS011;29510;52.140;5.034;2022-07-21T14:41:30;1.17;;;0.50;;
43861;SDS011;29510;52.140;5.034;2022-07-21T14:51:34;2.47;;;0.50;;
43861;SDS011;29510;52.140;5.034;2022-07-21T15:01:35;1.15;;;0.50;;
43861;SDS011;29510;52.140;5.034;2022-07-21T15:11:36;1.45;;;0.20;;
43861;SDS011;29510;52.140;5.034;2022-07-21T15:21:38;1.27;;;0.68;;
43861;SDS011;29510;52.140;5.034;2022-07-21T15:31:39;1.98;;;0.45;;
43861;SDS011;29510;52.140;5.034;2022-07-21T15:41:40;1.13;;;0.47;;
43861;SDS011;29510;52.140;5.034;2022-07-21T15:51:41;1.98;;;0.32;;
43861;SDS011;29510;52.140;5.034;2022-07-21T16:01:43;1.10;;;0.40;;
43861;SDS011;29510;52.140;5.034;2022-07-21T16:11:44;0.50;;;0.22;;
43861;SDS011;29510;52.140;5.034;2022-07-21T16:21:48;1.25;;;0.50;;
43861;SDS011;29510;52.140;5.034;2022-07-21T16:31:49;1.80;;;0.28;;
43861;SDS011;29510;52.140;5.034;2022-07-21T16:41:50;2.95;;;0.40;;
43861;SDS011;29510;52.140;5.034;2022-07-21T16:51:51;1.10;;;0.30;;
43861;SDS011;29510;52.140;5.034;2022-07-21T17:01:52;1.60;;;0.25;;
43861;SDS011;29510;52.140;5.034;2022-07-21T17:11:53;1.42;;;0.88;;
43861;SDS011;29510;52.140;5.034;2022-07-21T17:21:55;0.82;;;0.20;;
43861;SDS011;29510;52.140;5.034;2022-07-21T17:31:56;0.57;;;0.20;;
43861;SDS011;29510;52.140;5.034;2022-07-21T17:41:57;1.38;;;0.35;;
43861;SDS011;29510;52.140;5.034;2022-07-21T17:51:58;3.08;;;0.50;;
43861;SDS011;29510;52.140;5.034;2022-07-21T18:01:59;2.70;;;0.98;;
43861;SDS011;29510;52.140;5.034;2022-07-21T18:12:00;2.50;;;0.90;;
43861;SDS011;29510;52.140;5.034;2022-07-21T18:22:01;2.08;;;0.60;;
43861;SDS011;29510;52.140;5.034;2022-07-21T18:32:02;3.03;;;0.77;;
43861;SDS011;29510;52.140;5.034;2022-07-21T18:42:03;3.40;;;0.93;;
43861;SDS011;29510;52.140;5.034;2022-07-21T18:52:04;1.85;;;0.63;;
43861;SDS011;29510;52.140;5.034;2022-07-21T19:02:05;1.63;;;0.70;;
43861;SDS011;29510;52.140;5.034;2022-07-21T19:12:06;1.77;;;0.68;;
43861;SDS011;29510;52.140;5.034;2022-07-21T19:22:09;1.98;;;0.57;;
43861;SDS011;29510;52.140;5.034;2022-07-21T19:32:10;0.63;;;0.20;;
43861;SDS011;29510;52.140;5.034;2022-07-21T19:42:12;1.02;;;0.30;;
43861;SDS011;29510;52.140;5.034;2022-07-21T19:52:13;1.77;;;0.40;;
43861;SDS011;29510;52.140;5.034;2022-07-21T20:02:14;0.93;;;0.20;;
43861;SDS011;29510;52.140;5.034;2022-07-21T20:12:15;1.33;;;0.28;;
43861;SDS011;29510;52.140;5.034;2022-07-21T20:22:16;2.50;;;1.40;;
43861;SDS011;29510;52.140;5.034;2022-07-21T20:32:17;0.82;;;0.28;;
43861;SDS011;29510;52.140;5.034;2022-07-21T20:42:19;1.77;;;0.50;;
43861;SDS011;29510;52.140;5.034;2022-07-21T20:52:20;1.25;;;0.40;;
43861;SDS011;29510;52.140;5.034;2022-07-21T21:02:21;2.55;;;0.88;;
43861;SDS011;29510;52.140;5.034;2022-07-21T21:12:22;2.67;;;0.47;;
43861;SDS011;29510;52.140;5.034;2022-07-21T21:22:24;1.48;;;0.30;;
43861;SDS011;29510;52.140;5.034;2022-07-21T21:32:25;2.08;;;0.55;;
43861;SDS011;29510;52.140;5.034;2022-07-21T21:42:26;1.17;;;0.40;;
43861;SDS011;29510;52.140;5.034;2022-07-21T21:52:27;0.82;;;0.38;;
43861;SDS011;29510;52.140;5.034;2022-07-21T22:02:28;2.03;;;0.70;;
43861;SDS011;29510;52.140;5.034;2022-07-21T22:12:29;1.13;;;0.45;;
43861;SDS011;29510;52.140;5.034;2022-07-21T22:22:30;2.33;;;1.02;;
43861;SDS011;29510;52.140;5.034;2022-07-21T22:32:33;2.53;;;0.70;;
43861;SDS011;29510;52.140;5.034;2022-07-21T22:42:34;2.22;;;0.93;;
43861;SDS011;29510;52.140;5.034;2022-07-21T22:52:36;2.15;;;0.68;;
43861;SDS011;29510;52.140;5.034;2022-07-21T23:02:37;1.95;;;0.50;;
43861;SDS011;29510;52.140;5.034;2022-07-21T23:12:38;1.50;;;0.65;;
43861;SDS011;29510;52.140;5.034;2022-07-21T23:22:39;1.85;;;0.55;;
43861;SDS011;29510;52.140;5.034;2022-07-21T23:32:41;1.63;;;0.60;;
43861;SDS011;29510;52.140;5.034;2022-07-21T23:42:42;1.55;;;0.50;;
43861;SDS011;29510;52.140;5.034;2022-07-21T23:52:43;1.65;;;0.50;;
